Time;durP1;ratioP1;P1;durP2;ratioP2;P2;SDS_P1;SDS_P2;PMS_P1;PMS_P2;Temp;Humidity;BMP_temperature;BMP_pressure;BME280_temperature;BME280_humidity;BME280_pressure;Samples;Min_cycle;Max_cycle;Signal;HPM_P1;HPM_P2
2021/05/21 00:00:30;;;;;;;4.78;3.02;;;;;;;14.72;77.86;99215.80;1704021;84;21280;-83
2021/05/21 00:03:36;;;;;;;12.78;2.90;;;;;;;14.66;78.09;99214.81;1682046;84;21535;-83
2021/05/21 00:06:42;;;;;;;5.00;2.50;;;;;;;14.61;78.12;99205.56;1704148;84;21301;-83
2021/05/21 00:09:47;;;;;;;3.80;2.52;;;;;;;14.55;77.38;99210.91;1704052;84;21260;-83
2021/05/21 00:12:52;;;;;;;6.58;2.40;;;;;;;14.51;76.71;99208.84;1704181;84;21339;-83
2021/05/21 00:15:59;;;;;;;2.65;1.77;;;;;;;14.46;76.39;99214.17;1702825;83;21237;-83
2021/05/21 00:19:04;;;;;;;3.12;1.80;;;;;;;14.39;75.56;99208.72;1703127;84;21320;-83
2021/05/21 00:22:11;;;;;;;5.72;2.15;;;;;;;14.35;75.03;99214.39;1702655;83;21177;-83
2021/05/21 00:25:16;;;;;;;6.08;2.25;;;;;;;14.31;74.87;99210.41;1704203;84;21237;-83
2021/05/21 00:28:22;;;;;;;8.05;2.40;;;;;;;14.23;75.01;99212.07;1703557;84;21197;-83
2021/05/21 00:31:27;;;;;;;9.08;2.95;;;;;;;14.14;75.31;99210.14;1704119;84;21663;-84
2021/05/21 00:34:33;;;;;;;5.70;3.20;;;;;;;14.09;75.78;99221.52;1704053;84;21368;-83
2021/05/21 00:37:40;;;;;;;8.73;3.65;;;;;;;14.05;76.31;99212.33;1702629;83;21205;-83
2021/05/21 00:40:45;;;;;;;4.85;4.20;;;;;;;14.02;76.75;99210.05;1704110;84;21861;-83
2021/05/21 00:43:50;;;;;;;11.20;4.37;;;;;;;14.00;77.25;99219.04;1704176;84;21245;-83
2021/05/21 00:46:57;;;;;;;9.15;3.92;;;;;;;13.95;77.50;99212.54;1683100;84;21293;-83
2021/05/21 00:50:04;;;;;;;9.95;4.83;;;;;;;13.94;77.73;99217.73;1682574;84;21292;-83
2021/05/21 00:53:11;;;;;;;8.53;4.37;;;;;;;13.90;77.64;99216.50;1695501;84;21296;-83
2021/05/21 00:56:16;;;;;;;9.05;4.28;;;;;;;13.87;77.49;99212.28;1696169;84;21328;-83
2021/05/21 00:59:22;;;;;;;13.08;4.15;;;;;;;13.86;77.08;99210.59;1695950;84;21356;-83
2021/05/21 01:02:28;;;;;;;8.90;3.20;;;;;;;13.83;76.92;99225.31;1696263;84;21222;-83
2021/05/21 01:05:33;;;;;;;6.75;3.33;;;;;;;13.81;76.83;99209.06;1696439;84;21325;-83
2021/05/21 01:08:38;;;;;;;5.20;2.67;;;;;;;13.77;77.00;99214.16;1696440;84;21340;-83
2021/05/21 01:11:38;;;;;;;13.13;3.08;;;;;;;13.77;76.78;99216.06;1739506;82;21181;-83
2021/05/21 01:14:56;;;;;;;7.22;2.77;;;;;;;13.77;76.56;99207.82;1739658;82;21814;-83
2021/05/21 01:18:01;;;;;;;8.15;2.67;;;;;;;13.77;76.79;99221.56;1739654;82;21299;-83
2021/05/21 01:21:08;;;;;;;2.83;2.20;;;;;;;13.74;77.02;99213.25;1731814;82;21316;-83
2021/05/21 01:24:15;;;;;;;2.85;2.12;;;;;;;13.71;77.32;99213.69;1739014;82;21305;-83
2021/05/21 01:27:20;;;;;;;5.72;2.10;;;;;;;13.68;77.62;99225.64;1739143;82;21335;-83
2021/05/21 01:30:27;;;;;;;7.12;2.70;;;;;;;13.63;77.67;99205.70;1739791;82;21261;-83
2021/05/21 01:33:32;;;;;;;7.05;2.70;;;;;;;13.58;77.82;99211.03;1739707;82;21311;-83
2021/05/21 01:36:37;;;;;;;7.25;2.80;;;;;;;13.52;77.84;99219.63;1739716;82;21285;-83
2021/05/21 01:39:42;;;;;;;6.03;2.70;;;;;;;13.45;77.72;99233.09;1739529;82;21850;-83
2021/05/21 01:42:49;;;;;;;6.17;3.35;;;;;;;13.38;77.55;99240.55;1739560;82;21826;-83
2021/05/21 01:45:56;;;;;;;5.87;2.98;;;;;;;13.29;77.30;99213.34;1738162;82;21225;-83
2021/05/21 01:49:01;;;;;;;10.63;3.62;;;;;;;13.22;76.71;99233.14;1739433;82;21886;-83
2021/05/21 01:52:07;;;;;;;14.40;2.80;;;;;;;13.17;76.56;99213.68;1740052;81;21307;-83
2021/05/21 01:55:15;;;;;;;3.50;2.55;;;;;;;13.14;76.22;99218.79;1731737;82;21315;-83
2021/05/21 01:58:22;;;;;;;8.15;2.30;;;;;;;13.10;76.17;99212.05;1739680;82;21822;-83
2021/05/21 02:01:27;;;;;;;3.42;1.85;;;;;;;13.05;76.31;99227.27;1739432;82;21288;-83
2021/05/21 02:04:41;;;;;;;3.22;1.72;;;;;;;13.03;76.47;99227.16;1739632;82;21213;-83
2021/05/21 02:07:48;;;;;;;5.15;1.95;;;;;;;13.02;76.75;99209.85;1738276;82;21193;-83
2021/05/21 02:10:54;;;;;;;3.87;2.02;;;;;;;13.04;76.89;99219.27;1739645;82;21276;-83
2021/05/21 02:14:01;;;;;;;3.02;2.02;;;;;;;13.04;76.94;99219.27;1738177;81;21205;-83
2021/05/21 02:17:07;;;;;;;3.05;1.90;;;;;;;13.05;76.95;99207.22;1739332;82;22067;-83
2021/05/21 02:20:14;;;;;;;3.75;1.70;;;;;;;13.02;76.99;99220.00;1739045;82;21301;-83
2021/05/21 02:23:20;;;;;;;5.53;1.40;;;;;;;12.98;77.16;99207.77;1739634;82;21229;-83
2021/05/21 02:26:29;;;;;;;5.97;1.60;;;;;;;12.96;77.30;99207.16;1739565;82;21213;-83
2021/05/21 02:29:34;;;;;;;2.42;1.50;;;;;;;12.94;77.17;99214.24;1739190;82;21229;-83
2021/05/21 02:32:39;;;;;;;5.90;1.80;;;;;;;12.90;77.14;99218.48;1739795;82;21320;-83
2021/05/21 02:35:45;;;;;;;1.50;1.25;;;;;;;12.88;77.16;99218.38;1739198;82;21311;-83
2021/05/21 02:38:50;;;;;;;6.00;1.92;;;;;;;12.86;76.80;99223.25;1739057;82;21352;-83
2021/05/21 02:41:55;;;;;;;3.47;1.70;;;;;;;12.84;76.70;99267.35;1739496;82;21850;-83
2021/05/21 02:45:02;;;;;;;3.27;1.35;;;;;;;12.86;76.55;99220.50;1739480;82;21277;-83
2021/05/21 02:48:07;;;;;;;5.50;1.37;;;;;;;12.89;76.36;99226.41;1739604;82;21307;-83
2021/05/21 02:51:14;;;;;;;5.08;1.47;;;;;;;12.92;76.13;99219.09;1730105;82;21759;-82
2021/05/21 02:54:20;;;;;;;2.05;1.10;;;;;;;12.93;75.85;99217.19;1746495;81;21288;-83
2021/05/21 02:57:26;;;;;;;1.62;1.00;;;;;;;12.93;75.29;99234.49;1751253;81;21715;-83
2021/05/21 03:00:31;;;;;;;6.03;1.65;;;;;;;12.91;74.51;99247.61;1752820;82;21335;-83
2021/05/21 03:03:36;;;;;;;3.80;0.93;;;;;;;12.92;74.26;99242.42;1752869;82;21822;-83
2021/05/21 03:06:41;;;;;;;4.78;1.10;;;;;;;12.94;72.73;99248.55;1752475;82;21276;-83
2021/05/21 03:09:47;;;;;;;1.12;0.90;;;;;;;12.95;71.75;99246.11;1754875;80;21157;-82
2021/05/21 03:12:53;;;;;;;4.87;1.00;;;;;;;13.00;70.82;99261.93;1762436;80;21315;-83
2021/05/21 03:15:58;;;;;;;3.92;1.02;;;;;;;13.02;69.60;99268.03;1783351;80;21834;-83
2021/05/21 03:19:07;;;;;;;2.00;0.90;;;;;;;13.00;69.67;99260.03;1770596;80;21175;-83
2021/05/21 03:22:19;;;;;;;3.47;0.75;;;;;;;12.99;68.92;99273.98;1740832;82;21263;-83
2021/05/21 03:25:26;;;;;;;1.42;1.00;;;;;;;12.95;69.19;99266.70;1752397;82;21327;-83
2021/05/21 03:28:31;;;;;;;4.35;0.82;;;;;;;12.93;69.24;99272.08;1757686;80;21117;-83
2021/05/21 03:31:37;;;;;;;2.67;1.00;;;;;;;12.88;68.87;99274.10;1783855;80;21757;-83
2021/05/21 03:34:42;;;;;;;0.95;0.70;;;;;;;12.89;68.91;99279.92;1783991;80;21699;-83
2021/05/21 03:37:48;;;;;;;2.37;0.88;;;;;;;12.89;68.59;99266.70;1769906;80;21834;-83
2021/05/21 03:40:55;;;;;;;4.33;0.95;;;;;;;12.89;68.59;99273.06;1752824;82;21837;-83
2021/05/21 03:44:00;;;;;;;7.45;1.00;;;;;;;12.87;68.49;99271.05;1721239;82;21196;-83
2021/05/21 03:47:06;;;;;;;6.35;0.93;;;;;;;12.85;68.00;99277.30;1751721;82;21283;-83
2021/05/21 03:50:17;;;;;;;1.80;0.90;;;;;;;12.86;68.10;99274.86;1777496;80;21754;-83
2021/05/21 03:53:21;;;;;;;5.58;0.85;;;;;;;12.90;68.20;99284.34;1783310;80;21823;-83
2021/05/21 03:56:26;;;;;;;2.35;1.40;;;;;;;12.95;68.11;99287.28;1765392;80;21275;-83
2021/05/21 03:59:33;;;;;;;1.17;0.70;;;;;;;13.00;68.08;99294.34;1752830;82;21323;-82
2021/05/21 04:02:39;;;;;;;1.20;1.00;;;;;;;13.04;67.53;99283.77;1752716;82;21609;-81
2021/05/21 04:05:48;;;;;;;2.52;0.80;;;;;;;13.09;67.63;99290.83;1758735;80;21113;-82
2021/05/21 04:08:54;;;;;;;1.70;1.10;;;;;;;13.14;67.50;99280.56;1783212;80;21335;-82
2021/05/21 04:12:00;;;;;;;1.00;0.78;;;;;;;13.21;66.95;99292.34;1783708;80;21798;-83
2021/05/21 04:15:06;;;;;;;2.92;0.95;;;;;;;13.27;67.03;99274.52;1783167;80;21281;-82
2021/05/21 04:18:15;;;;;;;1.57;0.80;;;;;;;13.33;66.12;99293.92;1753637;80;21260;-83
2021/05/21 04:21:21;;;;;;;3.58;0.90;;;;;;;13.40;65.95;99285.10;1757442;80;21200;-83
2021/05/21 04:24:28;;;;;;;4.42;0.80;;;;;;;13.50;65.50;99276.72;1772019;80;21263;-83
2021/05/21 04:27:32;;;;;;;1.07;0.85;;;;;;;13.67;65.40;99285.80;1762895;80;21263;-83
2021/05/21 04:30:39;;;;;;;3.27;0.90;;;;;;;13.91;65.24;99283.61;1770264;79;21296;-83
2021/05/21 04:33:46;;;;;;;4.67;1.00;;;;;;;14.16;65.26;99279.52;1768838;80;21149;-83
2021/05/21 04:36:53;;;;;;;2.20;1.05;;;;;;;14.34;64.57;99275.95;1765781;80;21165;-85
2021/05/21 04:39:58;;;;;;;1.75;0.93;;;;;;;14.38;64.21;99284.60;1763221;80;21283;-84
2021/05/21 04:43:05;;;;;;;9.00;1.20;;;;;;;14.32;63.87;99303.70;1762985;79;21303;-84
2021/05/21 04:46:14;;;;;;;5.47;1.10;;;;;;;14.24;64.24;99287.47;1762613;80;21153;-84
2021/05/21 04:49:35;;;;;;;4.22;0.70;;;;;;;14.16;64.34;99297.91;1761507;80;21299;-84
2021/05/21 04:52:45;;;;;;;2.92;1.15;;;;;;;14.06;62.83;99306.66;1763838;80;21188;-85
2021/05/21 04:55:51;;;;;;;6.58;1.10;;;;;;;14.03;62.64;99302.99;1762821;79;21614;-83
2021/05/21 04:58:57;;;;;;;4.90;0.72;;;;;;;14.01;62.21;99301.82;1760586;80;21889;-83
2021/05/21 05:02:04;;;;;;;1.57;0.60;;;;;;;13.99;61.49;99312.22;1762666;79;21767;-83
2021/05/21 05:05:12;;;;;;;5.97;1.10;;;;;;;14.01;62.61;99320.23;1763082;79;21271;-84
2021/05/21 05:08:19;;;;;;;4.28;0.95;;;;;;;14.09;62.91;99312.25;1759764;79;21251;-84
2021/05/21 05:11:25;;;;;;;2.72;1.05;;;;;;;14.21;63.42;99324.19;1760678;80;21181;-83
2021/05/21 05:14:31;;;;;;;1.57;1.12;;;;;;;14.32;64.17;99331.73;1757939;79;21349;-83
2021/05/21 05:17:37;;;;;;;8.13;1.00;;;;;;;14.38;63.69;99324.49;1760981;80;21176;-83
2021/05/21 05:20:47;;;;;;;6.35;0.98;;;;;;;14.42;63.17;99325.19;1760926;79;21311;-83
2021/05/21 05:23:48;;;;;;;1.12;0.85;;;;;;;14.50;62.22;99322.20;1759584;79;21161;-84
2021/05/21 05:26:55;;;;;;;3.52;0.90;;;;;;;14.55;61.68;99353.16;1759719;79;21260;-82
2021/05/21 05:30:00;;;;;;;4.17;0.88;;;;;;;14.56;60.63;99352.09;1757777;79;21299;-82
2021/05/21 05:33:06;;;;;;;7.03;0.78;;;;;;;14.57;60.43;99347.72;1756763;79;21196;-82
2021/05/21 05:36:14;;;;;;;2.70;1.50;;;;;;;14.55;59.56;99347.13;1758942;79;21169;-85
2021/05/21 05:39:22;;;;;;;2.12;0.95;;;;;;;14.53;59.88;99350.61;1756959;79;21176;-83
2021/05/21 05:42:29;;;;;;;4.83;0.95;;;;;;;14.53;59.10;99346.48;1760569;79;21512;-85
2021/05/21 05:45:35;;;;;;;5.03;1.12;;;;;;;14.55;59.31;99344.38;1757596;79;21858;-83
2021/05/21 05:48:47;;;;;;;6.30;1.77;;;;;;;14.63;59.21;99349.27;1757948;79;21283;-83
2021/05/21 05:51:52;;;;;;;4.70;1.60;;;;;;;14.73;60.03;99357.34;1744977;79;21193;-85
2021/05/21 05:54:58;;;;;;;6.70;1.60;;;;;;;14.85;60.39;99360.17;1761791;79;21703;-84
2021/05/21 05:58:04;;;;;;;5.12;2.10;;;;;;;14.95;59.57;99354.14;1742490;80;21673;-84
2021/05/21 06:01:09;;;;;;;3.37;1.52;;;;;;;14.95;59.70;99363.78;1757359;79;21355;-82
2021/05/21 06:04:15;;;;;;;5.30;2.55;;;;;;;14.96;59.60;99360.82;1753761;79;21899;-83
2021/05/21 06:07:29;;;;;;;5.42;2.05;;;;;;;15.06;60.06;99357.53;1754888;79;22179;-85
2021/05/21 06:10:32;;;;;;;4.35;1.87;;;;;;;15.23;59.94;99357.75;1752130;80;21169;-83
2021/05/21 06:13:47;;;;;;;4.55;1.90;;;;;;;15.40;59.94;99361.58;1751397;80;21189;-85
2021/05/21 06:16:55;;;;;;;7.47;1.92;;;;;;;15.56;57.95;99371.13;1756923;80;22510;-85
2021/05/21 06:19:57;;;;;;;7.72;1.30;;;;;;;15.53;56.53;99367.47;1752812;80;21292;-84
2021/05/21 06:23:03;;;;;;;5.05;0.90;;;;;;;15.42;56.31;99366.31;1755301;79;21786;-85
2021/05/21 06:26:15;;;;;;;2.83;1.00;;;;;;;15.33;55.67;99366.31;1753800;80;21800;-84
2021/05/21 06:29:24;;;;;;;2.50;0.70;;;;;;;15.31;56.52;99369.85;1751422;79;22110;-84
2021/05/21 06:32:30;;;;;;;2.85;1.00;;;;;;;15.38;56.84;99376.11;1750906;79;21157;-85
2021/05/21 06:35:37;;;;;;;1.55;0.80;;;;;;;15.49;57.31;99383.63;1754067;79;21798;-87
2021/05/21 06:38:51;;;;;;;5.12;1.27;;;;;;;15.64;57.19;99382.41;1755735;80;21338;-85
2021/05/21 06:42:02;;;;;;;1.75;0.80;;;;;;;15.81;57.03;99395.88;1711024;81;21673;-84
2021/05/21 06:45:09;;;;;;;4.50;1.00;;;;;;;15.89;54.24;99387.80;1701654;83;21958;-84
2021/05/21 06:48:29;;;;;;;3.10;0.80;;;;;;;15.88;54.04;99404.88;1676211;84;21802;-85
2021/05/21 06:51:34;;;;;;;3.45;0.72;;;;;;;15.80;53.94;99401.90;1690967;82;21232;-84
2021/05/21 06:54:47;;;;;;;3.90;1.00;;;;;;;15.77;55.09;99387.76;1700126;83;21237;-83
2021/05/21 06:57:53;;;;;;;4.75;1.00;;;;;;;15.80;56.44;99419.82;1699082;83;21194;-84
2021/05/21 07:01:02;;;;;;;5.33;1.42;;;;;;;15.84;55.73;99410.55;1692371;83;21308;-84
2021/05/21 07:04:11;;;;;;;2.13;0.90;;;;;;;15.88;55.71;99411.78;1692936;83;21205;-86
2021/05/21 07:07:18;;;;;;;4.05;1.20;;;;;;;15.96;55.82;99411.47;1694285;83;21601;-84
2021/05/21 07:10:28;;;;;;;3.85;0.70;;;;;;;16.01;54.54;99423.17;1690985;83;21285;-85
2021/05/21 07:13:36;;;;;;;2.87;0.88;;;;;;;16.05;53.75;99426.61;1707971;81;21666;-85
2021/05/21 07:16:43;;;;;;;6.25;1.15;;;;;;;16.05;53.66;99412.82;1691152;83;21569;-84
2021/05/21 07:19:52;;;;;;;3.12;1.25;;;;;;;16.10;54.14;99423.99;1690139;83;21225;-85
2021/05/21 07:22:58;;;;;;;4.53;1.20;;;;;;;16.20;53.22;99428.11;1693288;83;21338;-85
2021/05/21 07:26:06;;;;;;;5.60;0.93;;;;;;;16.22;52.70;99436.98;1700504;82;21201;-86
2021/05/21 07:29:14;;;;;;;1.02;0.60;;;;;;;16.19;53.05;99425.05;1700754;83;21209;-84
2021/05/21 07:32:25;;;;;;;6.58;0.80;;;;;;;16.19;52.01;99443.83;1688556;82;21228;-84
2021/05/21 07:35:35;;;;;;;1.07;0.60;;;;;;;16.16;52.46;99438.77;1690476;83;21303;-85
2021/05/21 07:38:47;;;;;;;3.80;0.60;;;;;;;16.18;52.69;99466.11;1690694;83;21220;-85
2021/05/21 07:41:58;;;;;;;1.95;0.50;;;;;;;16.24;52.88;99453.62;1693166;83;21324;-85
2021/05/21 07:45:09;;;;;;;1.80;0.85;;;;;;;16.28;52.46;99441.58;1690007;83;22124;-87
2021/05/21 07:48:20;;;;;;;0.82;0.55;;;;;;;16.28;52.43;99451.23;1672990;83;21349;-85
2021/05/21 07:51:31;;;;;;;3.92;0.62;;;;;;;16.29;52.74;99440.50;1691466;83;21922;-88
2021/05/21 07:54:44;;;;;;;3.08;0.68;;;;;;;16.35;52.93;99447.83;1690080;83;21748;-87
2021/05/21 07:57:51;;;;;;;4.75;0.60;;;;;;;16.46;52.93;99439.27;1690686;83;21264;-82
2021/05/21 08:01:01;;;;;;;4.05;0.70;;;;;;;16.57;52.62;99448.98;1684731;82;21946;-81
2021/05/21 08:04:07;;;;;;;2.17;0.50;;;;;;;16.69;52.37;99446.78;1685226;82;21204;-82
2021/05/21 08:07:12;;;;;;;1.92;0.60;;;;;;;16.78;52.91;99462.79;1691672;83;21300;-84
2021/05/21 08:10:24;;;;;;;1.95;0.70;;;;;;;16.87;53.62;99477.10;1689161;83;21286;-84
2021/05/21 08:13:29;;;;;;;2.55;0.50;;;;;;;16.87;52.45;99470.20;1700593;82;21303;-81
2021/05/21 08:16:36;;;;;;;1.67;0.72;;;;;;;16.88;52.94;99461.37;1701516;82;21316;-83
2021/05/21 08:19:42;;;;;;;4.50;0.78;;;;;;;16.93;52.40;99484.42;1704511;83;21229;-81
2021/05/21 08:22:50;;;;;;;3.15;0.93;;;;;;;16.90;52.52;99476.64;1716106;82;21307;-80
2021/05/21 08:25:56;;;;;;;2.55;0.72;;;;;;;16.92;52.79;99486.89;1709317;82;21209;-83
2021/05/21 08:29:07;;;;;;;1.55;0.70;;;;;;;16.99;52.24;99473.83;1711663;82;21346;-86
2021/05/21 08:32:14;;;;;;;4.15;0.50;;;;;;;17.09;52.22;99480.98;1696852;82;21299;-84
2021/05/21 08:35:23;;;;;;;2.27;0.80;;;;;;;17.18;51.42;99480.63;1714774;82;21315;-86
2021/05/21 08:38:33;;;;;;;2.12;0.85;;;;;;;17.27;52.76;99498.55;1714114;82;21315;-83
2021/05/21 08:41:44;;;;;;;7.65;1.10;;;;;;;17.40;52.18;99483.08;1710688;82;21372;-84
2021/05/21 08:44:50;;;;;;;3.65;0.88;;;;;;;17.53;52.20;99486.14;1715482;82;21311;-84
2021/05/21 08:47:59;;;;;;;5.03;1.10;;;;;;;17.69;52.16;99488.70;1713325;82;21316;-85
2021/05/21 08:51:06;;;;;;;2.75;1.42;;;;;;;17.86;52.12;99491.05;1716829;82;21613;-84
2021/05/21 08:54:16;;;;;;;3.72;1.10;;;;;;;17.91;51.59;99497.24;1713559;82;21760;-86
2021/05/21 08:57:21;;;;;;;9.50;1.60;;;;;;;17.91;50.95;99502.23;1714031;82;21349;-86
2021/05/21 09:00:29;;;;;;;7.40;1.65;;;;;;;17.93;50.59;99515.30;1711977;82;21252;-85
2021/05/21 09:03:44;;;;;;;2.80;1.57;;;;;;;17.93;50.66;99507.54;1712448;82;21331;-84
2021/05/21 09:06:53;;;;;;;6.97;1.40;;;;;;;17.95;50.83;99508.96;1692049;82;21232;-87
2021/05/21 09:10:01;;;;;;;2.80;0.80;;;;;;;17.97;51.01;99502.62;1709027;82;21189;-84
2021/05/21 09:13:07;;;;;;;3.58;1.27;;;;;;;18.13;50.88;99507.41;1709381;82;21851;-84
2021/05/21 09:16:31;;;;;;;2.85;1.00;;;;;;;18.12;50.39;99522.34;1713959;82;21306;-83
2021/05/21 09:19:42;;;;;;;5.20;0.98;;;;;;;18.18;51.06;99504.45;1686534;84;21609;-85
2021/05/21 09:22:52;;;;;;;2.10;0.93;;;;;;;18.29;50.33;99518.24;1693786;84;21161;-85
2021/05/21 09:25:59;;;;;;;;;;;;;;;18.36;50.43;99513.42;1649225;83;21198;-84
2021/05/21 09:29:16;;;;;;;4.60;1.22;;;;;;;18.47;50.07;99504.76;1684616;82;20235;-83
2021/05/21 09:32:37;;;;;;;3.27;1.42;;;;;;;18.54;50.45;99500.47;1691993;83;21950;-83
2021/05/21 09:36:05;;;;;;;2.72;1.00;;;;;;;18.58;50.16;99509.42;1675203;83;22203;-83
2021/05/21 09:39:19;;;;;;;6.75;1.17;;;;;;;18.64;51.22;99507.59;1699688;82;21213;-86
2021/05/21 09:42:33;;;;;;;5.95;1.30;;;;;;;18.67;50.40;99511.77;1713587;81;21220;-84
2021/05/21 09:45:53;;;;;;;4.00;1.30;;;;;;;18.78;50.90;99506.22;1690002;83;21235;-81
2021/05/21 09:49:00;;;;;;;5.65;1.20;;;;;;;18.79;50.00;99507.89;1675075;83;21233;-84
2021/05/21 09:52:17;;;;;;;3.33;1.10;;;;;;;18.72;49.15;99503.58;1692300;83;21178;-84
2021/05/21 09:55:25;;;;;;;3.40;1.50;;;;;;;18.68;49.88;99514.83;1696271;82;21342;-86
2021/05/21 09:58:44;;;;;;;4.37;1.37;;;;;;;18.62;49.97;99510.58;1691748;83;21332;-85
2021/05/21 10:01:50;;;;;;;3.60;1.27;;;;;;;18.65;49.81;99514.80;1679364;82;21708;-86
2021/05/21 10:05:00;;;;;;;6.42;1.52;;;;;;;18.65;50.68;99503.17;1685870;83;21324;-86
2021/05/21 10:08:18;;;;;;;2.75;1.20;;;;;;;18.56;50.12;99512.97;1755124;80;21315;-85
2021/05/21 10:11:25;;;;;;;2.10;1.20;;;;;;;18.43;50.30;99510.49;1754168;79;21853;-85
2021/05/21 10:14:32;;;;;;;7.97;1.70;;;;;;;18.22;50.99;99513.41;1757741;79;21193;-85
2021/05/21 10:17:39;;;;;;;6.00;1.37;;;;;;;18.11;52.21;99533.64;1754929;79;21304;-86
2021/05/21 10:20:46;;;;;;;13.10;3.37;;;;;;;17.99;51.15;99523.99;1749807;79;22196;-87
2021/05/21 10:24:15;;;;;;;10.00;2.80;;;;;;;17.89;51.60;99529.31;1753687;79;21188;-87
2021/05/21 10:27:30;;;;;;;4.20;1.98;;;;;;;17.82;52.61;99509.22;1745965;80;21507;-85
2021/05/21 10:30:46;;;;;;;7.78;2.10;;;;;;;17.82;53.15;99525.81;1744250;80;21161;-84
2021/05/21 10:33:49;;;;;;;4.15;1.52;;;;;;;17.77;52.58;99537.61;1754850;79;21271;-85
2021/05/21 10:37:09;;;;;;;3.80;1.57;;;;;;;17.69;52.79;99524.65;1754529;79;21273;-85
2021/05/21 10:40:33;;;;;;;;;;;;;;;17.67;52.48;99529.59;1756748;80;21339;-85
2021/05/21 10:43:59;;;;;;;4.55;1.70;;;;;;;17.69;53.68;99523.27;1747322;80;20279;-86
2021/05/21 10:47:28;;;;;;;5.85;1.77;;;;;;;17.74;53.85;99513.77;1723137;80;21185;-83
2021/05/21 10:50:46;;;;;;;7.25;1.70;;;;;;;17.80;53.26;99504.48;1724965;80;21176;-85
2021/05/21 10:53:52;;;;;;;7.17;1.55;;;;;;;17.84;53.87;99514.83;1754561;79;21307;-83
2021/05/21 10:57:33;;;;;;;2.33;1.10;;;;;;;17.91;53.19;99510.53;1744069;80;21256;-84
2021/05/21 11:01:22;;;;;;;2.52;1.10;;;;;;;17.96;52.95;99522.25;1709633;82;21713;-87
2021/05/21 11:04:56;;;;;;;1.98;0.98;;;;;;;17.99;51.92;99528.69;1680677;81;21185;-84
2021/05/21 11:08:10;;;;;;;2.52;1.00;;;;;;;18.00;52.15;99516.53;1739882;81;21172;-83
2021/05/21 11:11:21;;;;;;;3.60;1.30;;;;;;;18.03;51.37;99516.05;1735897;81;21795;-83
2021/05/21 11:14:51;;;;;;;2.35;0.95;;;;;;;18.03;51.29;99520.20;1748496;81;21169;-83
2021/05/21 11:17:56;;;;;;;1.65;0.55;;;;;;;18.07;52.08;99521.41;1741752;79;21729;-84
2021/05/21 11:21:19;;;;;;;2.20;0.80;;;;;;;18.11;53.39;99517.91;1744231;79;21339;-85
2021/05/21 11:24:45;;;;;;;1.57;0.80;;;;;;;18.21;52.41;99521.42;1740706;81;21725;-83
2021/05/21 11:27:53;;;;;;;3.15;0.65;;;;;;;18.26;52.36;99519.30;1738603;81;21233;-84
2021/05/21 11:31:01;;;;;;;3.20;0.60;;;;;;;18.32;53.92;99518.31;1740048;81;21936;-84
2021/05/21 11:34:12;;;;;;;4.15;0.80;;;;;;;18.42;52.76;99507.98;1741406;81;21185;-85
2021/05/21 11:37:22;;;;;;;4.55;0.80;;;;;;;18.49;52.66;99521.98;1745270;79;21256;-85
2021/05/21 11:40:29;;;;;;;1.37;0.72;;;;;;;18.57;52.98;99516.03;1747920;81;21161;-84
2021/05/21 11:43:36;;;;;;;6.65;0.95;;;;;;;18.65;53.55;99514.80;1696223;81;21160;-83
2021/05/21 11:46:51;;;;;;;1.10;0.70;;;;;;;18.72;52.62;99511.89;1739444;81;21291;-84
2021/05/21 11:50:00;;;;;;;4.70;0.80;;;;;;;18.87;53.16;99517.73;1743901;81;21305;-84
2021/05/21 11:53:20;;;;;;;0.90;0.53;;;;;;;19.05;54.24;99516.09;1731286;81;21279;-85
2021/05/21 11:56:41;;;;;;;3.47;0.80;;;;;;;19.23;53.23;99512.78;1739804;79;21284;-84
2021/05/21 11:59:45;;;;;;;2.27;0.65;;;;;;;19.35;52.47;99511.61;1744608;81;21271;-84
2021/05/21 12:02:51;;;;;;;3.25;1.02;;;;;;;19.39;52.08;99521.11;1740773;80;21291;-84
2021/05/21 12:05:56;;;;;;;1.32;0.90;;;;;;;19.34;52.20;99517.42;1743733;81;21548;-84
2021/05/21 12:09:04;;;;;;;2.52;0.90;;;;;;;19.26;52.83;99526.16;1737782;81;21315;-84
2021/05/21 12:12:15;;;;;;;1.52;0.95;;;;;;;19.12;52.46;99525.09;1748357;81;21767;-85
2021/05/21 12:15:23;;;;;;;1.75;1.00;;;;;;;18.90;52.40;99515.28;1708166;81;21276;-85
2021/05/21 12:18:29;;;;;;;3.25;1.10;;;;;;;18.79;53.11;99514.81;1749590;81;21174;-85
2021/05/21 12:21:38;;;;;;;4.28;1.17;;;;;;;18.77;53.74;99524.45;1750440;80;21485;-85
2021/05/21 12:24:48;;;;;;;6.55;1.27;;;;;;;18.79;53.75;99514.81;1748914;81;21166;-85
2021/05/21 12:27:52;;;;;;;2.80;0.80;;;;;;;18.73;53.81;99520.52;1745154;81;21543;-86
2021/05/21 12:31:01;;;;;;;1.95;1.02;;;;;;;18.70;54.21;99521.01;1747201;81;21269;-86
2021/05/21 12:34:06;;;;;;;6.80;0.88;;;;;;;18.66;54.18;99519.23;1749040;81;21661;-86
2021/05/21 12:37:17;;;;;;;4.40;1.00;;;;;;;18.69;54.38;99531.80;1753298;81;21170;-84
2021/05/21 12:40:26;;;;;;;1.92;1.00;;;;;;;18.69;54.33;99534.02;1748178;81;21380;-85
2021/05/21 12:43:37;;;;;;;2.42;1.20;;;;;;;18.63;53.81;99537.21;1749758;81;21303;-85
2021/05/21 12:46:58;;;;;;;5.78;0.93;;;;;;;18.53;54.03;99525.91;1745210;81;21335;-84
2021/05/21 12:50:05;;;;;;;2.05;1.10;;;;;;;18.51;54.79;99525.33;1749462;81;21264;-84
2021/05/21 12:53:10;;;;;;;2.10;1.00;;;;;;;18.54;55.34;99533.70;1743867;81;21166;-84
2021/05/21 12:56:42;;;;;;;3.67;0.95;;;;;;;18.60;53.96;99534.09;1749140;81;21371;-82
2021/05/21 13:00:03;;;;;;;4.35;1.00;;;;;;;18.63;53.89;99547.42;1745663;81;21319;-82
2021/05/21 13:03:08;;;;;;;1.40;0.93;;;;;;;18.56;53.47;99547.58;1753723;81;21162;-83
2021/05/21 13:06:14;;;;;;;1.22;0.68;;;;;;;18.47;53.49;99539.92;1742710;81;21454;-83
2021/05/21 13:09:22;;;;;;;2.80;0.80;;;;;;;18.44;53.42;99552.31;1697614;84;21927;-83
2021/05/21 13:12:42;;;;;;;1.82;0.53;;;;;;;18.44;53.50;99545.39;1765842;81;21638;-83
2021/05/21 13:15:50;;;;;;;1.62;0.82;;;;;;;18.47;53.07;99549.06;1764797;80;22004;-83
2021/05/21 13:18:57;;;;;;;4.03;1.07;;;;;;;18.50;54.05;99558.27;1766535;81;22079;-83
2021/05/21 13:22:22;;;;;;;4.83;0.93;;;;;;;18.52;52.53;99558.85;1730985;81;21770;-83
2021/05/21 13:25:30;;;;;;;2.77;0.93;;;;;;;18.46;52.41;99557.63;1737741;81;21285;-83
2021/05/21 13:28:38;;;;;;;2.33;1.15;;;;;;;18.43;52.51;99559.49;1738029;81;21336;-83
2021/05/21 13:31:44;;;;;;;1.35;0.90;;;;;;;18.42;52.63;99560.03;1737256;81;21269;-83
2021/05/21 13:34:50;;;;;;;1.35;0.78;;;;;;;18.43;52.89;99576.94;1746373;81;21636;-83
2021/05/21 13:37:56;;;;;;;1.12;0.70;;;;;;;18.42;52.84;99569.73;1684853;84;21307;-83
2021/05/21 13:41:02;;;;;;;1.50;0.70;;;;;;;18.44;52.75;99582.77;1732472;81;21273;-83
2021/05/21 13:44:07;;;;;;;3.20;0.70;;;;;;;18.45;52.70;99576.72;1729292;82;21288;-83
2021/05/21 13:47:14;;;;;;;1.47;0.70;;;;;;;18.42;52.65;99571.11;1737602;82;21700;-83
2021/05/21 13:50:19;;;;;;;3.00;0.72;;;;;;;18.44;52.30;99576.39;1739439;81;21312;-83
2021/05/21 13:53:24;;;;;;;0.85;0.55;;;;;;;18.44;51.89;99580.00;1761293;81;21316;-83
2021/05/21 13:56:29;;;;;;;5.42;1.17;;;;;;;18.43;51.59;99589.41;1765105;81;21763;-83
2021/05/21 13:59:36;;;;;;;1.35;0.80;;;;;;;18.37;51.17;99576.55;1767921;81;21257;-82
2021/05/21 14:02:41;;;;;;;4.28;0.90;;;;;;;18.33;51.54;99573.97;1765513;81;21272;-83
2021/05/21 14:05:46;;;;;;;6.62;1.00;;;;;;;18.31;51.16;99570.61;1755497;81;21858;-83
2021/05/21 14:08:51;;;;;;;4.53;0.90;;;;;;;18.29;51.74;99578.30;1769784;81;21280;-83
2021/05/21 14:12:00;;;;;;;1.12;0.68;;;;;;;18.27;51.70;99569.42;1769983;81;21802;-83
2021/05/21 14:15:06;;;;;;;2.67;0.98;;;;;;;18.26;52.51;99575.50;1761489;81;21277;-82
2021/05/21 14:18:12;;;;;;;1.85;0.95;;;;;;;18.24;52.67;99567.97;1769413;81;21296;-83
2021/05/21 14:21:18;;;;;;;3.92;1.02;;;;;;;18.21;52.84;99579.55;1770022;81;21798;-83
2021/05/21 14:24:25;;;;;;;1.47;0.82;;;;;;;18.17;53.12;99573.36;1768493;80;21249;-83
2021/05/21 14:27:32;;;;;;;4.12;0.80;;;;;;;18.14;53.08;99583.81;1768976;81;21324;-83
2021/05/21 14:30:41;;;;;;;4.20;1.12;;;;;;;18.09;52.73;99578.16;1768285;81;21847;-82
2021/05/21 14:33:49;;;;;;;4.35;1.35;;;;;;;18.03;52.59;99569.47;1760942;81;21296;-82
2021/05/21 14:36:56;;;;;;;2.00;0.60;;;;;;;18.02;53.05;99576.60;1760450;81;21222;-82
2021/05/21 14:40:02;;;;;;;2.47;0.80;;;;;;;18.02;53.49;99584.39;1760845;81;21748;-83
2021/05/21 14:43:11;;;;;;;3.20;0.80;;;;;;;18.01;52.85;99586.00;1769563;81;21331;-83
2021/05/21 14:46:15;;;;;;;1.77;0.88;;;;;;;17.99;53.50;99589.56;1768528;81;21371;-83
2021/05/21 14:49:20;;;;;;;1.12;0.80;;;;;;;17.97;52.96;99587.02;1759985;81;21256;-83